KAPA/APA METAR and TAF weather

Enter ICAO airport designator
Station Type Date Time Source
KAPA METAR 2019/02/22 22:53 UTC NOAA

KAPA 222253Z 35012KT 1/4SM -SN FZFG VV002 M05/M05 A2972 RMK AO2 SFC VIS 1/2 SNB50 SLP113 P0000 T10501050


Station Type Date Time Source
KAPA Decoded METAR 2019/02/22 22:53 UTC NOAA

DENVER CENTENNIAL AIRPORT, CO, United States (KAPA) 39-34N 104-51W 1775M
Feb 22, 2019 - 05:53 PM EST / 2019.02.22 2253 UTC
Wind: from the N (350 degrees) at 14 MPH (12 KT):0
Visibility: 1/4 mile(s):0
Sky conditions: obscured
Weather: light snow; freezing fog
Precipitation last hour: A trace
Temperature: 23.0 F (-5.0 C)
Windchill: 10 F (-12 C):1
Dew Point: 23.0 F (-5.0 C)
Relative Humidity: 100%
Pressure (altimeter): 29.72 in. Hg (1006 hPa)
ob: KAPA 222253Z 35012KT 1/4SM -SN FZFG VV002 M05/M05 A2972 RMK AO2 SFC VIS 1/2 SNB50 SLP113 P0000 T10501050
cycle: 23

Station Type Date Time Source
KAPA TAF 2019/02/22 22:58 UTC NOAA

TAF
AMD KAPA 222156Z 2222/2318 36012KT 3SM BR VCSH SCT003 OVC007
TEMPO 2222/2301 1SM BR OVC003
FM230100 34012KT 3/4SM -SN BR OVC005
TEMPO 2304/2308 1/2SM SN OVC002
FM231000 34007KT 3SM BR OVC007
FM231400 34010KT P6SM SCT006 BKN012 BKN070


Example: see airport list